Time;durP1;ratioP1;P1;durP2;ratioP2;P2;SDS_P1;SDS_P2;PMS_P1;PMS_P2;Temp;Humidity;BMP_temperature;BMP_pressure;BME280_temperature;BME280_humidity;BME280_pressure;Samples;Min_cycle;Max_cycle;Signal;HPM_P1;HPM_P2
2021/10/11 00:02:09;;;;;;;7.40;3.00;;;21.10;51.20;;;;;;5013329;28;20138;-64
2021/10/11 00:04:35;;;;;;;5.85;2.83;;;21.10;51.20;;;;;;5015562;28;20494;-63
2021/10/11 00:07:01;;;;;;;6.00;2.85;;;21.10;51.10;;;;;;5014848;28;20044;-63
2021/10/11 00:09:26;;;;;;;6.38;3.00;;;21.10;51.20;;;;;;5014708;28;20430;-63
2021/10/11 00:11:52;;;;;;;6.03;2.97;;;21.10;51.20;;;;;;5015400;28;20155;-64
2021/10/11 00:14:18;;;;;;;7.60;3.35;;;21.10;51.30;;;;;;5016106;28;20046;-63
2021/10/11 00:16:43;;;;;;;6.85;3.10;;;21.10;51.40;;;;;;5014930;28;20048;-63
2021/10/11 00:19:09;;;;;;;6.80;3.33;;;21.10;51.30;;;;;;5014397;28;20041;-63
2021/10/11 00:21:35;;;;;;;6.57;3.05;;;21.10;51.40;;;;;;5015834;28;20033;-62
2021/10/11 00:24:01;;;;;;;6.82;3.10;;;21.10;51.10;;;;;;5015327;28;20049;-63
2021/10/11 00:26:26;;;;;;;6.57;3.45;;;21.10;51.30;;;;;;5015265;28;20033;-63
2021/10/11 00:28:52;;;;;;;8.50;3.40;;;21.10;51.20;;;;;;5023730;28;20143;-64
2021/10/11 00:31:18;;;;;;;6.38;3.03;;;21.10;51.50;;;;;;5015136;28;20053;-62
2021/10/11 00:33:43;;;;;;;6.70;3.15;;;21.10;51.40;;;;;;5015589;28;20137;-63
2021/10/11 00:36:09;;;;;;;8.07;3.30;;;21.10;51.30;;;;;;5013938;28;20038;-63
2021/10/11 00:38:34;;;;;;;8.80;3.28;;;21.10;51.40;;;;;;5016027;28;20072;-63
2021/10/11 00:41:00;;;;;;;9.38;3.72;;;21.10;51.20;;;;;;5013885;28;20077;-64
2021/10/11 00:43:27;;;;;;;6.47;3.20;;;21.10;52.00;;;;;;5012993;28;20049;-63
2021/10/11 00:45:52;;;;;;;6.78;3.45;;;21.10;51.40;;;;;;5013902;28;20058;-64
2021/10/11 00:48:18;;;;;;;6.28;3.17;;;21.10;51.30;;;;;;5015325;28;20467;-63
2021/10/11 00:50:44;;;;;;;6.65;3.35;;;21.10;51.40;;;;;;5015658;28;20054;-62
2021/10/11 00:53:11;;;;;;;6.38;3.33;;;21.10;51.40;;;;;;5015402;28;20038;-63
2021/10/11 00:55:36;;;;;;;8.13;3.30;;;21.10;51.50;;;;;;5015174;28;20054;-63
2021/10/11 00:58:02;;;;;;;6.65;3.40;;;21.00;51.20;;;;;;5013139;28;20053;-63
2021/10/11 01:00:28;;;;;;;7.40;3.45;;;21.10;51.30;;;;;;5016232;28;20465;-63
2021/10/11 01:02:54;;;;;;;6.43;3.03;;;21.10;51.30;;;;;;5015115;28;20050;-63
2021/10/11 01:05:19;;;;;;;6.75;3.60;;;21.10;51.20;;;;;;5012445;28;20036;-64
2021/10/11 01:07:46;;;;;;;6.30;3.03;;;21.10;51.20;;;;;;5014914;28;20049;-63
2021/10/11 01:10:11;;;;;;;7.53;3.17;;;21.10;51.20;;;;;;5012253;28;20048;-64
2021/10/11 01:12:37;;;;;;;6.57;3.20;;;21.10;51.30;;;;;;5016261;28;20053;-63
2021/10/11 01:15:04;;;;;;;7.13;3.47;;;21.00;51.10;;;;;;5013727;28;20439;-64
2021/10/11 01:17:29;;;;;;;6.03;3.10;;;21.10;51.20;;;;;;5014311;28;20042;-63
2021/10/11 01:19:56;;;;;;;9.38;3.60;;;21.00;51.00;;;;;;5013055;28;20041;-64
2021/10/11 01:22:33;;;;;;;7.72;3.67;;;21.00;50.90;;;;;;5013634;28;20067;-64
2021/10/11 01:24:58;;;;;;;8.25;3.60;;;21.00;50.90;;;;;;5012757;28;20069;-63
2021/10/11 01:27:28;;;;;;;7.20;3.38;;;21.00;50.90;;;;;;5012448;28;20072;-63
2021/10/11 01:29:55;;;;;;;6.85;3.40;;;21.00;50.90;;;;;;5017355;28;20034;-64
2021/10/11 01:32:21;;;;;;;6.57;3.30;;;21.00;50.80;;;;;;5013528;28;20049;-63
2021/10/11 01:34:47;;;;;;;6.65;3.35;;;21.00;50.80;;;;;;5012926;28;20036;-64
2021/10/11 01:37:13;;;;;;;7.45;3.40;;;21.00;50.90;;;;;;5015173;28;20506;-65
2021/10/11 01:39:38;;;;;;;6.40;3.00;;;21.00;50.80;;;;;;5017025;28;20045;-63
2021/10/11 01:42:04;;;;;;;7.35;3.53;;;21.00;50.80;;;;;;5016616;28;20140;-63
2021/10/11 01:44:30;;;;;;;7.35;3.40;;;21.00;50.80;;;;;;5016459;28;20042;-63
2021/10/11 01:46:55;;;;;;;7.55;3.40;;;21.00;50.80;;;;;;5012144;28;20034;-63
2021/10/11 01:49:21;;;;;;;7.70;3.58;;;21.00;50.70;;;;;;5012859;28;20133;-63
2021/10/11 01:51:47;;;;;;;6.50;3.08;;;21.00;50.70;;;;;;5022276;28;20548;-63
2021/10/11 01:54:12;;;;;;;7.00;3.25;;;21.00;50.60;;;;;;5013906;28;20030;-64
2021/10/11 01:56:38;;;;;;;6.78;3.53;;;21.00;50.70;;;;;;5012956;28;20092;-64
2021/10/11 01:59:03;;;;;;;7.20;3.47;;;21.00;50.60;;;;;;5012908;28;20037;-64
2021/10/11 02:01:29;;;;;;;6.45;3.25;;;21.00;50.60;;;;;;5013519;28;20100;-64
2021/10/11 02:03:55;;;;;;;6.90;3.10;;;21.00;50.50;;;;;;5013340;28;20457;-62
2021/10/11 02:06:22;;;;;;;6.68;3.35;;;21.00;50.60;;;;;;5014426;28;24465;-62
2021/10/11 02:08:48;;;;;;;8.57;3.45;;;21.00;50.40;;;;;;5013671;28;20048;-63
2021/10/11 02:11:14;;;;;;;7.63;3.70;;;21.00;50.50;;;;;;5014160;28;20049;-63
2021/10/11 02:13:40;;;;;;;7.10;3.35;;;21.00;50.40;;;;;;5016640;28;20052;-64
2021/10/11 02:16:06;;;;;;;6.68;3.33;;;21.00;50.40;;;;;;5018008;28;20042;-64
2021/10/11 02:18:32;;;;;;;8.38;3.58;;;21.00;50.50;;;;;;5018657;28;20783;-64
2021/10/11 02:20:58;;;;;;;7.47;3.53;;;21.00;50.40;;;;;;5017354;28;20052;-63
2021/10/11 02:23:24;;;;;;;6.85;3.30;;;21.00;50.40;;;;;;5019288;28;20585;-63
2021/10/11 02:25:49;;;;;;;7.07;3.42;;;21.00;50.40;;;;;;5018499;28;20594;-62
2021/10/11 02:28:15;;;;;;;6.25;3.00;;;21.00;50.40;;;;;;5014960;28;20057;-63
2021/10/11 02:30:41;;;;;;;7.00;3.40;;;21.00;50.40;;;;;;5017926;28;20041;-63
2021/10/11 02:33:07;;;;;;;6.93;3.50;;;21.00;50.40;;;;;;5017668;28;20516;-64
2021/10/11 02:35:32;;;;;;;6.95;3.38;;;21.00;50.40;;;;;;5019569;28;20042;-63
2021/10/11 02:37:58;;;;;;;7.50;3.70;;;21.00;50.40;;;;;;5022471;28;20624;-64
2021/10/11 02:40:24;;;;;;;7.25;3.80;;;21.00;50.40;;;;;;5016476;28;20757;-63
2021/10/11 02:42:49;;;;;;;7.47;3.70;;;21.00;50.30;;;;;;5016158;28;20064;-63
2021/10/11 02:45:15;;;;;;;6.68;3.50;;;21.00;50.30;;;;;;5017379;28;20133;-64
2021/10/11 02:47:41;;;;;;;8.05;3.42;;;21.00;50.20;;;;;;5016397;28;20052;-63
2021/10/11 02:50:07;;;;;;;7.30;3.58;;;21.00;50.30;;;;;;5013578;28;20037;-63
2021/10/11 02:52:35;;;;;;;5.97;3.13;;;21.00;50.20;;;;;;5016553;28;20558;-63
2021/10/11 02:55:02;;;;;;;7.88;3.63;;;21.00;50.20;;;;;;5016144;28;20100;-63
2021/10/11 02:57:28;;;;;;;7.57;3.35;;;20.90;50.10;;;;;;5015693;28;20086;-64
2021/10/11 02:59:54;;;;;;;6.68;3.10;;;20.90;50.00;;;;;;5017438;28;20259;-63
2021/10/11 03:02:19;;;;;;;6.90;3.25;;;21.00;50.20;;;;;;5015781;28;20490;-64
2021/10/11 03:04:45;;;;;;;7.40;3.40;;;21.00;50.30;;;;;;5016377;28;20055;-63
2021/10/11 03:07:11;;;;;;;8.00;4.03;;;21.00;50.10;;;;;;5013573;28;20052;-64
2021/10/11 03:09:37;;;;;;;9.70;3.63;;;21.00;50.10;;;;;;5014680;28;20038;-63
2021/10/11 03:12:03;;;;;;;6.45;3.25;;;20.90;50.00;;;;;;5017933;28;20504;-63
2021/10/11 03:14:29;;;;;;;7.10;3.33;;;20.90;49.90;;;;;;5014768;28;20044;-64
2021/10/11 03:16:55;;;;;;;7.75;3.35;;;21.00;50.10;;;;;;5016060;28;20076;-62
2021/10/11 03:19:20;;;;;;;8.30;3.38;;;20.90;50.00;;;;;;5018201;28;20046;-63
2021/10/11 03:21:46;;;;;;;9.27;3.63;;;20.90;50.00;;;;;;5016130;28;20044;-63
2021/10/11 03:24:11;;;;;;;7.38;3.85;;;20.90;50.00;;;;;;5012850;28;20132;-64
2021/10/11 03:26:37;;;;;;;7.60;3.33;;;20.90;50.00;;;;;;5016318;28;20041;-63
2021/10/11 03:29:03;;;;;;;7.13;3.60;;;20.90;49.90;;;;;;5015430;28;20049;-64
2021/10/11 03:31:28;;;;;;;8.30;3.80;;;20.90;49.90;;;;;;5015706;28;20046;-63
2021/10/11 03:33:54;;;;;;;7.35;3.42;;;21.00;50.00;;;;;;5017239;28;20775;-63
2021/10/11 03:36:19;;;;;;;7.03;3.53;;;20.90;49.80;;;;;;5017708;28;20636;-61
2021/10/11 03:38:45;;;;;;;7.95;3.95;;;20.90;49.80;;;;;;5017036;28;20093;-63
2021/10/11 03:41:11;;;;;;;6.93;3.53;;;20.90;49.80;;;;;;5015820;28;20042;-63
2021/10/11 03:43:36;;;;;;;7.00;3.53;;;21.00;50.00;;;;;;5014193;28;20077;-63
2021/10/11 03:46:02;;;;;;;7.90;3.70;;;20.90;49.90;;;;;;5014201;28;20049;-63
2021/10/11 03:48:28;;;;;;;6.80;3.72;;;21.00;49.80;;;;;;5015222;28;20056;-63
2021/10/11 03:50:54;;;;;;;7.13;3.50;;;21.00;50.00;;;;;;5015143;28;20050;-64
2021/10/11 03:53:20;;;;;;;7.68;3.85;;;20.90;49.80;;;;;;5015002;28;20037;-63
2021/10/11 03:55:45;;;;;;;7.80;3.83;;;21.00;49.90;;;;;;5014797;28;21421;-64
2021/10/11 03:58:11;;;;;;;6.88;3.53;;;21.00;49.90;;;;;;5014533;28;20581;-64
2021/10/11 04:00:37;;;;;;;8.13;3.78;;;20.90;49.60;;;;;;5016784;28;20773;-62
2021/10/11 04:03:05;;;;;;;7.85;3.90;;;20.90;49.90;;;;;;5015034;28;20124;-63
2021/10/11 04:05:31;;;;;;;9.98;3.20;;;20.90;50.00;;;;;;5014974;28;20434;-63
2021/10/11 04:08:00;;;;;;;7.95;3.97;;;20.90;50.00;;;;;;5016784;28;20056;-63
2021/10/11 04:10:30;;;;;;;8.40;3.42;;;20.90;50.00;;;;;;5013314;28;20057;-62
2021/10/11 04:13:02;;;;;;;7.35;3.42;;;20.90;49.90;;;;;;5016456;28;20041;-64
2021/10/11 04:15:29;;;;;;;7.00;3.60;;;20.90;49.80;;;;;;5014290;28;20049;-63
2021/10/11 04:17:55;;;;;;;7.65;3.65;;;20.90;49.80;;;;;;5016189;28;20470;-63
2021/10/11 04:20:22;;;;;;;7.80;3.50;;;20.90;49.80;;;;;;5016943;28;20789;-63
2021/10/11 04:22:48;;;;;;;7.88;3.80;;;20.90;49.70;;;;;;5014960;28;20046;-64
2021/10/11 04:25:14;;;;;;;7.47;3.50;;;21.00;49.90;;;;;;5014094;28;20052;-63
2021/10/11 04:27:40;;;;;;;8.02;3.50;;;20.90;49.70;;;;;;5015907;28;20100;-63
2021/10/11 04:30:07;;;;;;;9.80;3.90;;;20.90;49.70;;;;;;5014515;28;20518;-63
2021/10/11 04:32:33;;;;;;;7.18;3.72;;;20.90;49.50;;;;;;5015601;28;20049;-63
2021/10/11 04:34:59;;;;;;;8.60;3.72;;;20.90;49.60;;;;;;5014978;28;20038;-64
2021/10/11 04:37:26;;;;;;;6.75;3.28;;;20.90;50.00;;;;;;5012629;28;20037;-63
2021/10/11 04:39:51;;;;;;;8.05;3.60;;;20.90;50.20;;;;;;5016837;28;20478;-64
2021/10/11 04:42:17;;;;;;;9.13;3.95;;;20.90;50.00;;;;;;5015234;28;20041;-63
2021/10/11 04:44:43;;;;;;;8.18;3.53;;;20.90;49.90;;;;;;5015641;28;20486;-64
2021/10/11 04:47:08;;;;;;;7.72;3.80;;;20.90;49.80;;;;;;5012735;28;20046;-63
2021/10/11 04:49:34;;;;;;;8.23;3.90;;;20.90;49.80;;;;;;5014308;28;20068;-62
2021/10/11 04:51:59;;;;;;;9.63;4.20;;;20.90;49.70;;;;;;5011668;28;20534;-64
2021/10/11 04:54:25;;;;;;;8.13;3.55;;;20.90;49.60;;;;;;5013490;28;20046;-63
2021/10/11 04:56:51;;;;;;;8.38;3.88;;;20.90;49.70;;;;;;5016746;28;20045;-63
2021/10/11 04:59:16;;;;;;;7.75;3.65;;;20.90;49.70;;;;;;5015364;28;20049;-63
2021/10/11 05:01:42;;;;;;;8.68;3.90;;;20.90;49.70;;;;;;5015165;28;20042;-63
2021/10/11 05:04:08;;;;;;;6.90;3.75;;;20.90;49.60;;;;;;5016640;28;20064;-63
2021/10/11 05:06:33;;;;;;;6.53;3.60;;;20.90;49.50;;;;;;5015309;28;20042;-64
2021/10/11 05:09:00;;;;;;;7.47;3.53;;;21.00;49.70;;;;;;5014778;28;20037;-62
2021/10/11 05:11:29;;;;;;;6.47;3.42;;;20.90;49.50;;;;;;5016441;28;20046;-62
2021/10/11 05:13:55;;;;;;;7.35;3.58;;;20.90;49.60;;;;;;5015980;28;20045;-63
2021/10/11 05:16:22;;;;;;;6.85;3.63;;;20.90;49.50;;;;;;5013424;28;20075;-63
2021/10/11 05:18:47;;;;;;;9.05;3.80;;;20.90;49.50;;;;;;5016177;28;20503;-64
2021/10/11 05:21:13;;;;;;;7.63;3.90;;;20.90;49.60;;;;;;5016331;28;20151;-63
2021/10/11 05:23:38;;;;;;;7.32;3.75;;;20.90;49.60;;;;;;5014972;28;20152;-63
2021/10/11 05:26:04;;;;;;;7.43;3.95;;;20.90;49.50;;;;;;5014753;28;20052;-63
2021/10/11 05:28:30;;;;;;;7.32;3.60;;;20.90;49.50;;;;;;5015716;28;20065;-63
2021/10/11 05:30:55;;;;;;;8.70;4.30;;;20.90;49.60;;;;;;5016239;28;20041;-63
2021/10/11 05:33:22;;;;;;;8.10;4.07;;;20.90;49.60;;;;;;5014512;28;20129;-63
2021/10/11 05:35:49;;;;;;;7.97;3.92;;;20.90;49.50;;;;;;5015927;28;20533;-64
2021/10/11 05:38:15;;;;;;;7.13;3.67;;;20.90;49.50;;;;;;5013620;28;20035;-64
2021/10/11 05:40:41;;;;;;;7.65;3.90;;;20.90;49.60;;;;;;5016489;28;20041;-63
2021/10/11 05:43:07;;;;;;;7.93;3.88;;;20.90;49.50;;;;;;5017328;28;20476;-63
2021/10/11 05:45:33;;;;;;;8.00;4.10;;;20.90;49.50;;;;;;5015117;28;20044;-63
2021/10/11 05:47:59;;;;;;;7.57;4.07;;;20.90;49.50;;;;;;5019532;28;20045;-63
2021/10/11 05:50:25;;;;;;;7.90;3.80;;;20.90;49.50;;;;;;5018309;28;20060;-63
2021/10/11 05:52:51;;;;;;;7.65;3.67;;;20.90;49.50;;;;;;5018087;28;20092;-64
2021/10/11 05:55:16;;;;;;;7.57;4.10;;;20.90;49.50;;;;;;5018389;28;20042;-63
2021/10/11 05:57:42;;;;;;;7.57;4.05;;;20.90;49.50;;;;;;5018130;28;20464;-63
2021/10/11 06:00:09;;;;;;;9.50;4.13;;;20.90;49.50;;;;;;5018658;28;20053;-65
2021/10/11 06:02:34;;;;;;;9.13;3.85;;;20.90;49.80;;;;;;5016130;28;20104;-62
2021/10/11 06:05:01;;;;;;;9.25;4.00;;;20.90;50.30;;;;;;5017699;28;20054;-64
2021/10/11 06:07:28;;;;;;;9.27;4.05;;;20.90;50.20;;;;;;5016923;28;20049;-63
2021/10/11 06:09:56;;;;;;;7.63;3.70;;;20.90;50.10;;;;;;5018233;28;20033;-62
2021/10/11 06:12:21;;;;;;;11.18;4.32;;;20.90;50.10;;;;;;5020849;28;20050;-70
2021/10/11 06:14:47;;;;;;;12.88;4.22;;;21.00;51.20;;;;;;5017844;28;20456;-71
2021/10/11 06:17:13;;;;;;;8.35;4.32;;;21.10;51.60;;;;;;5016584;28;20044;-71
2021/10/11 06:19:38;;;;;;;17.27;4.30;;;21.30;52.00;;;;;;5018506;28;20642;-69
2021/10/11 06:22:04;;;;;;;8.95;4.18;;;21.30;52.50;;;;;;5018040;28;20057;-70
2021/10/11 06:24:30;;;;;;;9.02;4.40;;;21.50;52.50;;;;;;5018075;28;20502;-72
2021/10/11 06:26:58;;;;;;;9.55;4.40;;;21.60;52.50;;;;;;5017936;28;20037;-71
2021/10/11 06:29:23;;;;;;;8.90;4.13;;;21.70;52.80;;;;;;5020518;28;20418;-70
2021/10/11 06:31:49;;;;;;;10.73;4.55;;;21.90;53.00;;;;;;5016523;28;20038;-71
2021/10/11 06:34:15;;;;;;;9.18;4.32;;;22.00;52.90;;;;;;5016106;28;20056;-72
2021/10/11 06:36:40;;;;;;;11.43;4.50;;;22.10;53.00;;;;;;5016426;28;20048;-70
2021/10/11 06:39:06;;;;;;;8.38;3.90;;;22.10;53.60;;;;;;5016256;28;20473;-70
2021/10/11 06:41:32;;;;;;;10.55;4.28;;;22.20;52.90;;;;;;5016290;28;20049;-69
2021/10/11 06:43:58;;;;;;;9.75;3.95;;;22.30;53.20;;;;;;5017409;28;20069;-69
2021/10/11 06:46:24;;;;;;;9.90;4.22;;;22.40;52.60;;;;;;5016583;28;20545;-71
2021/10/11 06:48:50;;;;;;;13.25;3.85;;;22.50;52.70;;;;;;5015221;28;20136;-71
2021/10/11 06:51:16;;;;;;;9.63;4.10;;;22.50;52.60;;;;;;5017671;28;20049;-70
2021/10/11 06:53:41;;;;;;;10.07;4.45;;;22.60;52.50;;;;;;5017942;28;20048;-70
2021/10/11 06:56:07;;;;;;;8.05;3.65;;;22.70;53.10;;;;;;5018955;28;20045;-70
2021/10/11 06:58:33;;;;;;;9.77;3.92;;;22.70;52.70;;;;;;5020099;28;20102;-70
2021/10/11 07:00:59;;;;;;;12.82;4.47;;;22.70;52.30;;;;;;5018219;28;20109;-70
2021/10/11 07:03:25;;;;;;;11.65;4.30;;;22.80;53.00;;;;;;5018308;28;20448;-71
2021/10/11 07:06:04;;;;;;;27.50;4.65;;;22.80;52.50;;;;;;5018389;28;20064;-70
2021/10/11 07:08:30;;;;;;;14.18;4.43;;;22.90;52.50;;;;;;5015488;28;20045;-70
2021/10/11 07:10:56;;;;;;;9.65;4.20;;;23.00;52.50;;;;;;5018630;28;20041;-71
2021/10/11 07:13:22;;;;;;;18.60;4.68;;;23.00;52.60;;;;;;5017735;28;20110;-71
2021/10/11 07:15:48;;;;;;;16.58;4.47;;;23.00;52.40;;;;;;5017749;28;20078;-71
2021/10/11 07:18:14;;;;;;;10.55;4.00;;;23.10;52.50;;;;;;5015242;28;20053;-70
2021/10/11 07:20:43;;;;;;;10.80;3.72;;;23.10;52.30;;;;;;5016769;28;20047;-70
2021/10/11 07:23:12;;;;;;;11.73;4.38;;;23.10;52.30;;;;;;5016030;28;20042;-70
2021/10/11 07:25:42;;;;;;;18.27;4.40;;;23.20;52.40;;;;;;5018289;28;20907;-70
2021/10/11 07:28:08;;;;;;;21.60;4.50;;;23.20;52.40;;;;;;5015125;28;20041;-68
2021/10/11 07:30:33;;;;;;;15.55;4.20;;;23.20;52.30;;;;;;5018894;28;20110;-71
2021/10/11 07:33:00;;;;;;;14.02;4.28;;;23.30;52.60;;;;;;5019563;28;20587;-70
2021/10/11 07:35:27;;;;;;;11.60;3.85;;;23.30;52.20;;;;;;5017011;28;20055;-70
2021/10/11 07:37:53;;;;;;;13.50;4.00;;;23.30;52.10;;;;;;5018894;28;20571;-70
2021/10/11 07:40:20;;;;;;;12.90;3.95;;;23.40;52.30;;;;;;5019386;28;20116;-71
2021/10/11 07:42:46;;;;;;;18.25;3.65;;;23.40;52.20;;;;;;5018654;28;20049;-71
2021/10/11 07:45:12;;;;;;;11.00;4.25;;;23.40;52.30;;;;;;5017251;28;20507;-71
2021/10/11 07:47:38;;;;;;;8.43;4.10;;;23.40;52.30;;;;;;5016860;28;20053;-70
2021/10/11 07:50:05;;;;;;;8.68;3.72;;;23.50;52.20;;;;;;5016206;28;20624;-70
2021/10/11 07:52:30;;;;;;;8.57;3.65;;;23.50;52.40;;;;;;5018938;28;20632;-70
2021/10/11 07:54:56;;;;;;;11.82;4.13;;;23.60;52.60;;;;;;5018905;28;20030;-70
2021/10/11 07:57:22;;;;;;;11.98;3.63;;;23.60;52.00;;;;;;5018987;28;20116;-71
2021/10/11 07:59:47;;;;;;;15.27;4.10;;;23.50;52.00;;;;;;5015919;28;20033;-71
2021/10/11 08:02:13;;;;;;;10.32;3.80;;;23.50;51.80;;;;;;5017138;28;20045;-71
2021/10/11 08:04:38;;;;;;;10.43;3.90;;;23.60;52.00;;;;;;5017911;28;20126;-70
2021/10/11 08:07:04;;;;;;;12.65;3.33;;;23.60;52.30;;;;;;5017744;28;20045;-70
2021/10/11 08:09:30;;;;;;;12.77;3.88;;;23.60;52.20;;;;;;5015696;28;20095;-70
2021/10/11 08:11:55;;;;;;;10.35;3.83;;;23.60;52.10;;;;;;5017109;28;20037;-71
2021/10/11 08:14:21;;;;;;;18.65;3.83;;;23.70;52.30;;;;;;5017006;28;20483;-70
2021/10/11 08:16:47;;;;;;;9.27;3.83;;;23.70;52.30;;;;;;5017755;28;20033;-70
2021/10/11 08:19:13;;;;;;;14.90;3.70;;;23.70;52.20;;;;;;5015991;28;20037;-70
2021/10/11 08:21:38;;;;;;;11.20;3.97;;;23.70;52.20;;;;;;5017915;28;20533;-71
2021/10/11 08:24:05;;;;;;;11.32;3.72;;;23.70;52.10;;;;;;5016262;28;20092;-69
2021/10/11 08:26:34;;;;;;;13.80;3.53;;;23.80;52.20;;;;;;5022847;28;20045;-70
2021/10/11 08:29:00;;;;;;;9.38;3.58;;;23.80;52.20;;;;;;5017475;28;20494;-70
2021/10/11 08:31:26;;;;;;;10.93;3.53;;;23.70;52.30;;;;;;5017222;28;20042;-69
2021/10/11 08:33:52;;;;;;;9.23;3.72;;;23.70;52.30;;;;;;5015359;28;20042;-69
2021/10/11 08:36:17;;;;;;;13.40;3.28;;;23.70;52.10;;;;;;5015869;28;20038;-70
2021/10/11 08:38:43;;;;;;;11.73;4.00;;;23.80;52.20;;;;;;5017983;28;20037;-68
2021/10/11 08:41:10;;;;;;;12.35;4.25;;;23.80;52.20;;;;;;5014261;28;20046;-70
2021/10/11 08:43:38;;;;;;;12.85;4.07;;;23.80;52.00;;;;;;5018131;28;20705;-70
2021/10/11 08:46:05;;;;;;;10.68;3.63;;;23.80;51.90;;;;;;5016022;28;20037;-70
2021/10/11 08:48:32;;;;;;;10.27;3.60;;;23.80;51.80;;;;;;5015895;28;20579;-71
2021/10/11 08:50:58;;;;;;;8.45;3.70;;;23.90;51.90;;;;;;5014693;28;20116;-70
2021/10/11 08:53:24;;;;;;;7.68;3.75;;;23.90;51.90;;;;;;5014760;28;20407;-70
2021/10/11 08:55:50;;;;;;;17.83;3.53;;;23.90;51.80;;;;;;5017561;28;20049;-70
2021/10/11 08:58:16;;;;;;;9.18;3.45;;;23.90;51.80;;;;;;5015613;28;20034;-69
2021/10/11 09:00:42;;;;;;;8.70;3.13;;;23.90;51.70;;;;;;5018271;28;20048;-70
2021/10/11 09:03:09;;;;;;;37.30;4.05;;;23.90;51.80;;;;;;5018397;28;20056;-71
2021/10/11 09:05:36;;;;;;;12.02;3.20;;;23.90;51.70;;;;;;5014652;28;20037;-71
2021/10/11 09:08:02;;;;;;;8.30;3.60;;;23.90;51.80;;;;;;5015958;28;20044;-69
2021/10/11 09:10:29;;;;;;;13.93;3.53;;;24.00;51.80;;;;;;5017056;28;20037;-70
2021/10/11 09:12:55;;;;;;;7.13;2.80;;;24.00;51.80;;;;;;5015074;28;20506;-69
2021/10/11 09:15:20;;;;;;;8.73;3.30;;;24.00;51.70;;;;;;5013294;28;20080;-70
2021/10/11 09:17:55;;;;;;;10.32;3.35;;;24.00;51.80;;;;;;5014128;28;20035;-69
2021/10/11 09:20:24;;;;;;;7.57;3.17;;;24.00;51.60;;;;;;5014172;28;20034;-70
2021/10/11 09:22:56;;;;;;;8.77;3.05;;;24.10;51.80;;;;;;5013231;28;20045;-70
2021/10/11 09:25:30;;;;;;;7.43;3.20;;;24.10;51.80;;;;;;5014814;28;20029;-70
2021/10/11 09:27:56;;;;;;;8.55;3.17;;;24.10;51.80;;;;;;5014914;28;20410;-70
2021/10/11 09:30:31;;;;;;;7.88;3.17;;;24.10;51.60;;;;;;5016056;28;20041;-70
2021/10/11 09:33:17;;;;;;;13.10;3.17;;;24.10;51.70;;;;;;5015647;28;20568;-70
2021/10/11 09:35:45;;;;;;;8.75;3.47;;;24.10;51.60;;;;;;5015241;28;20622;-70
2021/10/11 09:38:23;;;;;;;10.98;3.20;;;24.10;51.70;;;;;;5016188;28;20041;-70
2021/10/11 09:40:52;;;;;;;6.85;3.00;;;24.10;51.50;;;;;;5016317;28;20103;-70
2021/10/11 09:43:22;;;;;;;10.13;2.95;;;24.20;51.90;;;;;;5016508;28;20041;-70
2021/10/11 09:45:47;;;;;;;9.10;3.10;;;24.20;51.50;;;;;;5016067;28;20131;-70
2021/10/11 09:48:13;;;;;;;10.30;3.20;;;24.20;51.70;;;;;;5014434;28;20374;-70
2021/10/11 09:50:40;;;;;;;11.13;3.17;;;24.20;51.70;;;;;;5015982;28;20053;-70
2021/10/11 09:53:08;;;;;;;8.65;3.15;;;24.20;51.70;;;;;;5015184;28;20037;-70
2021/10/11 09:55:34;;;;;;;10.07;2.90;;;24.20;51.60;;;;;;5015931;28;20076;-70
2021/10/11 09:58:01;;;;;;;8.98;3.05;;;24.30;51.80;;;;;;5011912;28;20561;-70
2021/10/11 10:00:27;;;;;;;12.32;2.70;;;24.30;51.70;;;;;;5014615;28;20088;-70
2021/10/11 10:02:55;;;;;;;9.50;2.80;;;24.20;51.40;;;;;;5015351;28;20695;-70
2021/10/11 10:05:38;;;;;;;8.18;2.90;;;24.30;51.20;;;;;;5015149;28;20037;-70
2021/10/11 10:08:10;;;;;;;8.68;2.90;;;24.30;51.50;;;;;;5015249;28;20121;-71
2021/10/11 10:10:39;;;;;;;6.80;2.78;;;24.30;52.00;;;;;;5014405;28;20042;-70
2021/10/11 10:13:19;;;;;;;7.82;2.78;;;24.30;52.20;;;;;;5015789;28;20153;-70
2021/10/11 10:15:46;;;;;;;8.02;2.70;;;24.30;51.40;;;;;;5014062;28;20072;-68
2021/10/11 10:18:16;;;;;;;11.38;2.60;;;24.30;51.50;;;;;;5015355;28;20531;-68
2021/10/11 10:20:54;;;;;;;9.93;2.90;;;24.30;51.50;;;;;;5015923;28;20038;-70
2021/10/11 10:23:23;;;;;;;9.20;2.70;;;24.30;51.40;;;;;;5015354;28;20065;-70
2021/10/11 10:25:48;;;;;;;8.38;2.58;;;24.30;51.50;;;;;;5017138;28;20045;-70
2021/10/11 10:28:15;;;;;;;10.48;3.00;;;24.30;51.20;;;;;;5016610;28;20583;-70
2021/10/11 10:30:41;;;;;;;8.38;2.78;;;24.30;52.00;;;;;;5017094;28;20442;-70
2021/10/11 10:33:16;;;;;;;10.88;2.90;;;24.30;51.40;;;;;;5017920;28;20096;-70
2021/10/11 10:35:46;;;;;;;19.95;3.40;;;24.30;51.50;;;;;;5019769;28;20044;-67
2021/10/11 10:38:20;;;;;;;10.20;2.60;;;24.40;51.50;;;;;;5018505;28;20490;-68
2021/10/11 10:40:47;;;;;;;9.95;2.60;;;24.30;51.40;;;;;;5017835;28;20052;-70
2021/10/11 10:43:17;;;;;;;14.25;2.78;;;24.30;51.40;;;;;;5019672;28;20049;-70
2021/10/11 10:45:44;;;;;;;10.43;2.70;;;24.20;52.00;;;;;;5017637;28;20065;-70
2021/10/11 10:48:27;;;;;;;10.38;2.60;;;24.00;50.90;;;;;;5016883;28;20172;-70
2021/10/11 10:51:02;;;;;;;10.45;2.60;;;23.80;50.90;;;;;;5019168;28;20050;-70
2021/10/11 10:53:29;;;;;;;;;;;23.70;52.10;;;;;;5020244;28;20048;-70
2021/10/11 10:55:55;;;;;;;11.25;2.83;;;23.60;52.40;;;;;;5019024;28;20321;-70
2021/10/11 10:58:22;;;;;;;9.98;2.10;;;23.60;52.80;;;;;;5018451;28;20391;-70
2021/10/11 11:00:48;;;;;;;7.68;2.38;;;23.50;53.10;;;;;;5017019;28;20451;-70
2021/10/11 11:03:16;;;;;;;8.77;2.47;;;23.40;53.10;;;;;;5015092;28;20124;-70
2021/10/11 11:05:43;;;;;;;12.70;2.47;;;23.40;53.40;;;;;;5019565;28;20041;-70
2021/10/11 11:08:11;;;;;;;10.13;2.45;;;23.40;53.50;;;;;;5018041;28;20033;-66
2021/10/11 11:10:38;;;;;;;11.48;2.47;;;23.30;53.20;;;;;;5017468;28;20133;-70
2021/10/11 11:13:14;;;;;;;7.90;2.58;;;23.40;53.10;;;;;;5018492;28;20045;-70
2021/10/11 11:15:52;;;;;;;7.55;2.47;;;23.40;53.10;;;;;;5019092;28;20173;-68
2021/10/11 11:18:18;;;;;;;10.45;2.30;;;23.40;52.50;;;;;;5016052;28;20041;-69
2021/10/11 11:20:44;;;;;;;8.52;2.45;;;23.40;52.20;;;;;;5020515;28;20033;-70
2021/10/11 11:23:19;;;;;;;9.40;2.70;;;23.30;51.70;;;;;;5018516;28;20497;-70
2021/10/11 11:25:48;;;;;;;8.85;2.03;;;23.40;51.70;;;;;;5019291;28;20042;-70
2021/10/11 11:28:20;;;;;;;10.13;2.53;;;23.40;51.50;;;;;;5017399;28;20046;-71
2021/10/11 11:30:47;;;;;;;11.70;2.63;;;23.40;52.00;;;;;;5013498;28;20494;-70
2021/10/11 11:33:19;;;;;;;7.47;2.42;;;23.40;51.20;;;;;;5017812;28;20090;-69
2021/10/11 11:35:49;;;;;;;11.32;2.30;;;23.40;51.10;;;;;;5018093;28;20577;-70
2021/10/11 11:38:18;;;;;;;15.82;2.50;;;23.40;51.00;;;;;;5016025;28;20045;-68
2021/10/11 11:41:11;;;;;;;7.10;2.28;;;23.40;51.60;;;;;;5018403;28;20037;-67
2021/10/11 11:43:40;;;;;;;8.00;2.30;;;23.60;51.70;;;;;;5013765;28;20142;-71
2021/10/11 11:46:07;;;;;;;7.07;2.42;;;23.70;51.80;;;;;;5014843;28;20470;-67
2021/10/11 11:48:41;;;;;;;8.98;2.60;;;23.80;51.80;;;;;;5018212;28;20045;-68
2021/10/11 11:51:10;;;;;;;9.63;2.33;;;23.80;51.30;;;;;;5016209;28;20038;-70
2021/10/11 11:53:38;;;;;;;10.23;2.50;;;23.90;51.70;;;;;;5017216;28;20041;-69
2021/10/11 11:56:05;;;;;;;8.00;2.50;;;23.90;51.60;;;;;;5016677;28;20087;-69
2021/10/11 11:58:41;;;;;;;8.82;2.30;;;24.00;51.70;;;;;;5014854;28;20129;-69
2021/10/11 12:01:12;;;;;;;8.32;2.60;;;24.10;51.80;;;;;;5016846;28;20069;-70
2021/10/11 12:04:04;;;;;;;10.13;2.40;;;24.10;51.70;;;;;;5017101;28;20033;-69
2021/10/11 12:06:31;;;;;;;6.95;2.22;;;24.10;51.70;;;;;;5018110;28;20056;-69
2021/10/11 12:08:58;;;;;;;5.68;2.00;;;24.20;51.80;;;;;;5015714;28;20042;-68
2021/10/11 12:11:24;;;;;;;7.63;2.20;;;24.20;51.80;;;;;;5014708;28;20698;-69
2021/10/11 12:13:55;;;;;;;10.70;2.20;;;24.20;51.70;;;;;;5017076;28;20045;-68
2021/10/11 12:16:21;;;;;;;8.30;2.15;;;24.20;51.60;;;;;;5015045;28;20083;-70
2021/10/11 12:18:51;;;;;;;8.27;2.30;;;24.30;52.00;;;;;;5017771;28;20037;-69
2021/10/11 12:21:34;;;;;;;7.32;2.20;;;24.30;51.90;;;;;;5015252;28;20657;-69
2021/10/11 12:24:15;;;;;;;11.30;2.83;;;24.30;51.90;;;;;;5018053;28;20410;-69
2021/10/11 12:26:49;;;;;;;7.70;2.05;;;24.30;52.00;;;;;;5018290;28;20056;-69
2021/10/11 12:29:15;;;;;;;6.68;2.05;;;24.30;51.80;;;;;;5016687;28;20164;-69
2021/10/11 12:31:41;;;;;;;6.88;2.10;;;24.30;51.70;;;;;;5018710;28;20046;-70
2021/10/11 12:34:12;;;;;;;9.75;2.17;;;24.30;51.60;;;;;;5015896;28;20056;-68
2021/10/11 12:36:52;;;;;;;6.45;2.33;;;24.30;51.70;;;;;;5017513;28;20042;-69
2021/10/11 12:39:32;;;;;;;5.22;1.90;;;24.30;51.70;;;;;;5017893;28;20096;-69
2021/10/11 12:41:58;;;;;;;7.20;2.22;;;24.40;51.80;;;;;;5015178;28;20061;-69
2021/10/11 12:44:43;;;;;;;10.32;2.25;;;24.40;51.80;;;;;;5017070;28;20050;-70
2021/10/11 12:47:09;;;;;;;6.38;2.20;;;24.40;51.80;;;;;;5014895;28;20033;-68